sensor_id;sensor_type;location;lat;lon;timestamp;pressure;altitude;pressure_sealevel;temperature;humidity
70544;BME280;58097;48.364;-1.224;2022-09-01T00:01:13;99715.13;;;20.08;66.44
70544;BME280;58097;48.364;-1.224;2022-09-01T00:03:44;99717.91;;;20.08;67.08
70544;BME280;58097;48.364;-1.224;2022-09-01T00:06:14;99710.19;;;20.03;67.38
70544;BME280;58097;48.364;-1.224;2022-09-01T00:08:47;99709.59;;;19.95;67.87
70544;BME280;58097;48.364;-1.224;2022-09-01T00:11:13;99702.88;;;19.71;69.30
70544;BME280;58097;48.364;-1.224;2022-09-01T00:13:38;99700.53;;;19.61;69.03
70544;BME280;58097;48.364;-1.224;2022-09-01T00:16:04;99712.16;;;19.65;68.14
70544;BME280;58097;48.364;-1.224;2022-09-01T00:18:30;99707.41;;;19.65;67.96
70544;BME280;58097;48.364;-1.224;2022-09-01T00:20:58;99700.53;;;19.68;68.37
70544;BME280;58097;48.364;-1.224;2022-09-01T00:23:25;99703.97;;;19.70;68.20
70544;BME280;58097;48.364;-1.224;2022-09-01T00:25:52;99695.31;;;19.71;67.62
70544;BME280;58097;48.364;-1.224;2022-09-01T00:28:17;99692.69;;;19.76;67.71
70544;BME280;58097;48.364;-1.224;2022-09-01T00:30:43;99695.72;;;19.75;67.24
70544;BME280;58097;48.364;-1.224;2022-09-01T00:33:09;99688.41;;;19.74;67.51
70544;BME280;58097;48.364;-1.224;2022-09-01T00:35:34;99693.56;;;19.77;67.18
70544;BME280;58097;48.364;-1.224;2022-09-01T00:38:00;99695.91;;;19.80;67.73
70544;BME280;58097;48.364;-1.224;2022-09-01T00:40:25;99683.38;;;19.83;67.48
70544;BME280;58097;48.364;-1.224;2022-09-01T00:42:51;99683.94;;;19.91;67.45
70544;BME280;58097;48.364;-1.224;2022-09-01T00:45:18;99691.91;;;19.94;67.54
70544;BME280;58097;48.364;-1.224;2022-09-01T00:47:46;99688.03;;;19.95;67.12
70544;BME280;58097;48.364;-1.224;2022-09-01T00:50:14;99682.84;;;19.99;67.28
70544;BME280;58097;48.364;-1.224;2022-09-01T00:52:50;99700.06;;;20.02;67.79
70544;BME280;58097;48.364;-1.224;2022-09-01T00:55:22;99697.72;;;19.99;66.91
70544;BME280;58097;48.364;-1.224;2022-09-01T00:57:49;99692.34;;;19.98;67.17
70544;BME280;58097;48.364;-1.224;2022-09-01T01:00:20;99694.72;;;19.94;68.53
70544;BME280;58097;48.364;-1.224;2022-09-01T01:02:47;99692.66;;;19.83;67.98
70544;BME280;58097;48.364;-1.224;2022-09-01T01:05:14;99690.53;;;19.78;68.38
70544;BME280;58097;48.364;-1.224;2022-09-01T01:07:42;99688.41;;;19.74;67.97
70544;BME280;58097;48.364;-1.224;2022-09-01T01:10:11;99686.00;;;19.77;67.73
70544;BME280;58097;48.364;-1.224;2022-09-01T01:12:38;99682.13;;;19.78;67.32
70544;BME280;58097;48.364;-1.224;2022-09-01T01:15:09;99690.06;;;19.82;67.59
70544;BME280;58097;48.364;-1.224;2022-09-01T01:17:36;99684.41;;;19.88;67.96
70544;BME280;58097;48.364;-1.224;2022-09-01T01:20:04;99692.34;;;19.91;68.53
70544;BME280;58097;48.364;-1.224;2022-09-01T01:23:09;99691.63;;;19.77;68.35
70544;BME280;58097;48.364;-1.224;2022-09-01T01:25:43;99689.94;;;19.70;69.72
70544;BME280;58097;48.364;-1.224;2022-09-01T01:30:47;99678.16;;;19.55;70.06
70544;BME280;58097;48.364;-1.224;2022-09-01T01:33:24;99679.28;;;19.47;69.41
70544;BME280;58097;48.364;-1.224;2022-09-01T01:35:52;99681.22;;;19.46;69.21
70544;BME280;58097;48.364;-1.224;2022-09-01T01:38:19;99675.59;;;19.46;69.80
70544;BME280;58097;48.364;-1.224;2022-09-01T01:40:47;99683.56;;;19.49;70.06
70544;BME280;58097;48.364;-1.224;2022-09-01T01:43:12;99681.22;;;19.46;69.58
70544;BME280;58097;48.364;-1.224;2022-09-01T01:45:47;99664.84;;;19.43;70.74
70544;BME280;58097;48.364;-1.224;2022-09-01T01:48:17;99674.34;;;19.42;69.96
70544;BME280;58097;48.364;-1.224;2022-09-01T01:50:48;99675.19;;;19.43;69.49
70544;BME280;58097;48.364;-1.224;2022-09-01T01:53:14;99674.53;;;19.47;69.39
70544;BME280;58097;48.364;-1.224;2022-09-01T01:55:42;99673.84;;;19.52;69.04
70544;BME280;58097;48.364;-1.224;2022-09-01T01:58:08;99681.59;;;19.57;68.83
70544;BME280;58097;48.364;-1.224;2022-09-01T02:00:36;99679.03;;;19.55;68.84
70544;BME280;58097;48.364;-1.224;2022-09-01T02:03:03;99672.78;;;19.53;68.75
70544;BME280;58097;48.364;-1.224;2022-09-01T02:05:32;99679.91;;;19.49;69.53
70544;BME280;58097;48.364;-1.224;2022-09-01T02:08:03;99684.69;;;19.42;69.25
70544;BME280;58097;48.364;-1.224;2022-09-01T02:10:33;99674.78;;;19.39;68.92
70544;BME280;58097;48.364;-1.224;2022-09-01T02:13:01;99669.63;;;19.36;70.11
70544;BME280;58097;48.364;-1.224;2022-09-01T02:15:35;99673.75;;;19.27;70.20
70544;BME280;58097;48.364;-1.224;2022-09-01T02:18:06;99672.09;;;19.19;70.79
70544;BME280;58097;48.364;-1.224;2022-09-01T02:20:32;99675.13;;;19.18;69.73
70544;BME280;58097;48.364;-1.224;2022-09-01T02:22:58;99675.56;;;19.15;70.67
70544;BME280;58097;48.364;-1.224;2022-09-01T02:25:32;99677.09;;;19.11;71.16
70544;BME280;58097;48.364;-1.224;2022-09-01T02:27:59;99675.38;;;19.03;70.67
70544;BME280;58097;48.364;-1.224;2022-09-01T02:30:27;99671.50;;;19.04;70.51
70544;BME280;58097;48.364;-1.224;2022-09-01T02:32:53;99672.34;;;19.05;70.50
70544;BME280;58097;48.364;-1.224;2022-09-01T02:35:19;99675.59;;;19.02;70.51
70544;BME280;58097;48.364;-1.224;2022-09-01T02:37:44;99680.34;;;19.01;70.64
70544;BME280;58097;48.364;-1.224;2022-09-01T02:40:13;99662.03;;;18.99;70.04
70544;BME280;58097;48.364;-1.224;2022-09-01T02:42:40;99677.75;;;19.00;69.78
70544;BME280;58097;48.364;-1.224;2022-09-01T02:45:08;99681.50;;;18.87;70.22
70544;BME280;58097;48.364;-1.224;2022-09-01T02:47:36;99686.88;;;18.75;70.69
70544;BME280;58097;48.364;-1.224;2022-09-01T02:50:06;99681.53;;;18.67;70.12
70544;BME280;58097;48.364;-1.224;2022-09-01T02:52:38;99686.50;;;18.65;69.85
70544;BME280;58097;48.364;-1.224;2022-09-01T02:55:06;99686.50;;;18.65;70.09
70544;BME280;58097;48.364;-1.224;2022-09-01T02:57:32;99684.97;;;18.69;69.63
70544;BME280;58097;48.364;-1.224;2022-09-01T02:59:59;99689.69;;;18.75;69.69
70544;BME280;58097;48.364;-1.224;2022-09-01T03:02:24;99685.41;;;18.79;69.51
70544;BME280;58097;48.364;-1.224;2022-09-01T03:04:54;99680.00;;;18.78;69.54
70544;BME280;58097;48.364;-1.224;2022-09-01T03:07:20;99678.06;;;18.78;69.55
70544;BME280;58097;48.364;-1.224;2022-09-01T03:09:50;99680.44;;;18.75;69.48
70544;BME280;58097;48.364;-1.224;2022-09-01T03:12:17;99680.88;;;18.72;69.05
70544;BME280;58097;48.364;-1.224;2022-09-01T03:14:44;99677.66;;;18.68;69.15
70544;BME280;58097;48.364;-1.224;2022-09-01T03:17:10;99677.47;;;18.63;69.22
70544;BME280;58097;48.364;-1.224;2022-09-01T03:19:36;99677.22;;;18.58;69.24
70544;BME280;58097;48.364;-1.224;2022-09-01T03:22:08;99685.00;;;18.56;69.23
70544;BME280;58097;48.364;-1.224;2022-09-01T03:24:34;99682.84;;;18.58;69.36
70544;BME280;58097;48.364;-1.224;2022-09-01T03:27:01;99685.63;;;18.58;69.46
70544;BME280;58097;48.364;-1.224;2022-09-01T03:29:26;99690.38;;;18.57;69.17
70544;BME280;58097;48.364;-1.224;2022-09-01T03:31:52;99683.91;;;18.57;69.07
70544;BME280;58097;48.364;-1.224;2022-09-01T03:34:17;99684.13;;;18.55;68.90
70544;BME280;58097;48.364;-1.224;2022-09-01T03:36:46;99684.34;;;18.54;69.18
70544;BME280;58097;48.364;-1.224;2022-09-01T03:39:17;99682.84;;;18.51;69.42
70544;BME280;58097;48.364;-1.224;2022-09-01T03:41:43;99681.13;;;18.50;69.26
70544;BME280;58097;48.364;-1.224;2022-09-01T03:44:10;99676.81;;;18.54;69.26
70544;BME280;58097;48.364;-1.224;2022-09-01T03:46:36;99669.03;;;18.50;69.28
70544;BME280;58097;48.364;-1.224;2022-09-01T03:49:03;99669.50;;;18.47;69.47
70544;BME280;58097;48.364;-1.224;2022-09-01T03:51:31;99661.31;;;18.45;69.36
70544;BME280;58097;48.364;-1.224;2022-09-01T03:53:57;99671.44;;;18.40;69.20
70544;BME280;58097;48.364;-1.224;2022-09-01T03:56:26;99659.63;;;18.38;69.29
70544;BME280;58097;48.364;-1.224;2022-09-01T03:58:55;99658.13;;;18.35;68.91
70544;BME280;58097;48.364;-1.224;2022-09-01T04:01:21;99655.53;;;18.34;69.17
70544;BME280;58097;48.364;-1.224;2022-09-01T04:03:47;99650.16;;;18.32;69.25
70544;BME280;58097;48.364;-1.224;2022-09-01T04:06:14;99652.09;;;18.32;69.20
70544;BME280;58097;48.364;-1.224;2022-09-01T04:08:43;99646.50;;;18.32;69.31
70544;BME280;58097;48.364;-1.224;2022-09-01T04:11:15;99651.66;;;18.35;69.53
70544;BME280;58097;48.364;-1.224;2022-09-01T04:13:43;99655.97;;;18.31;69.20
70544;BME280;58097;48.364;-1.224;2022-09-01T04:16:30;99654.91;;;18.25;68.96
70544;BME280;58097;48.364;-1.224;2022-09-01T04:19:19;99652.34;;;18.23;69.50
70544;BME280;58097;48.364;-1.224;2022-09-01T04:21:52;99656.41;;;18.21;69.45
70544;BME280;58097;48.364;-1.224;2022-09-01T04:24:18;99649.94;;;18.20;69.08
70544;BME280;58097;48.364;-1.224;2022-09-01T04:26:45;99653.81;;;18.19;69.22
70544;BME280;58097;48.364;-1.224;2022-09-01T04:29:13;99646.28;;;18.20;69.13
70544;BME280;58097;48.364;-1.224;2022-09-01T04:31:39;99650.38;;;18.17;69.41
70544;BME280;58097;48.364;-1.224;2022-09-01T04:34:06;99647.59;;;18.17;69.34
70544;BME280;58097;48.364;-1.224;2022-09-01T04:36:35;99637.47;;;18.16;69.06
70544;BME280;58097;48.364;-1.224;2022-09-01T04:39:02;99637.28;;;18.11;69.63
70544;BME280;58097;48.364;-1.224;2022-09-01T04:41:35;99641.38;;;18.09;69.25
70544;BME280;58097;48.364;-1.224;2022-09-01T04:44:02;99643.31;;;18.08;69.45
70544;BME280;58097;48.364;-1.224;2022-09-01T04:46:30;99633.63;;;18.04;69.21
70544;BME280;58097;48.364;-1.224;2022-09-01T04:48:59;99634.28;;;18.06;69.05
70544;BME280;58097;48.364;-1.224;2022-09-01T04:51:25;99632.97;;;18.09;69.18
70544;BME280;58097;48.364;-1.224;2022-09-01T04:53:54;99627.38;;;18.09;69.11
70544;BME280;58097;48.364;-1.224;2022-09-01T04:56:22;99627.59;;;18.07;69.44
70544;BME280;58097;48.364;-1.224;2022-09-01T04:58:50;99628.03;;;18.04;69.45
70544;BME280;58097;48.364;-1.224;2022-09-01T05:01:19;99625.03;;;18.06;69.54
70544;BME280;58097;48.364;-1.224;2022-09-01T05:03:46;99630.63;;;17.99;69.42
70544;BME280;58097;48.364;-1.224;2022-09-01T05:06:26;99632.16;;;17.95;69.70
70544;BME280;58097;48.364;-1.224;2022-09-01T05:08:52;99625.91;;;17.93;69.73
70544;BME280;58097;48.364;-1.224;2022-09-01T05:11:20;99624.16;;;17.92;69.55
70544;BME280;58097;48.364;-1.224;2022-09-01T05:13:48;99630.22;;;17.95;69.59
70544;BME280;58097;48.364;-1.224;2022-09-01T05:16:18;99629.56;;;18.00;69.95
70544;BME280;58097;48.364;-1.224;2022-09-01T05:18:46;99624.81;;;18.01;69.61
70544;BME280;58097;48.364;-1.224;2022-09-01T05:21:15;99623.31;;;17.98;69.85
70544;BME280;58097;48.364;-1.224;2022-09-01T05:23:44;99622.03;;;18.01;69.89
70544;BME280;58097;48.364;-1.224;2022-09-01T05:26:13;99622.25;;;17.99;70.23
70544;BME280;58097;48.364;-1.224;2022-09-01T05:28:45;99621.16;;;18.00;69.73
70544;BME280;58097;48.364;-1.224;2022-09-01T05:31:11;99616.66;;;17.99;70.08
70544;BME280;58097;48.364;-1.224;2022-09-01T05:33:38;99615.16;;;17.97;70.24
70544;BME280;58097;48.364;-1.224;2022-09-01T05:36:11;99613.22;;;17.97;69.99
70544;BME280;58097;48.364;-1.224;2022-09-01T05:38:38;99612.78;;;18.00;69.76
70544;BME280;58097;48.364;-1.224;2022-09-01T05:41:07;99616.63;;;18.06;70.29
70544;BME280;58097;48.364;-1.224;2022-09-01T05:43:34;99623.09;;;18.06;69.75
70544;BME280;58097;48.364;-1.224;2022-09-01T05:46:04;99614.69;;;18.06;69.96
70544;BME280;58097;48.364;-1.224;2022-09-01T05:48:30;99616.19;;;18.09;70.10
70544;BME280;58097;48.364;-1.224;2022-09-01T05:51:06;99614.47;;;18.14;69.95
70544;BME280;58097;48.364;-1.224;2022-09-01T05:53:32;99611.25;;;18.11;69.73
70544;BME280;58097;48.364;-1.224;2022-09-01T05:55:59;99614.25;;;18.09;69.84
70544;BME280;58097;48.364;-1.224;2022-09-01T05:58:31;99618.56;;;18.12;69.91
70544;BME280;58097;48.364;-1.224;2022-09-01T06:01:00;99624.34;;;18.17;69.98
70544;BME280;58097;48.364;-1.224;2022-09-01T06:03:27;99623.72;;;18.21;70.09
70544;BME280;58097;48.364;-1.224;2022-09-01T06:05:54;99627.38;;;18.22;70.53
70544;BME280;58097;48.364;-1.224;2022-09-01T06:08:23;99624.81;;;18.07;71.32
70544;BME280;58097;48.364;-1.224;2022-09-01T06:10:50;99627.84;;;17.99;71.24
70544;BME280;58097;48.364;-1.224;2022-09-01T06:13:18;99632.16;;;17.95;70.84
70544;BME280;58097;48.364;-1.224;2022-09-01T06:15:47;99628.69;;;18.00;70.70
70544;BME280;58097;48.364;-1.224;2022-09-01T06:18:13;99631.06;;;18.03;70.66
70544;BME280;58097;48.364;-1.224;2022-09-01T06:20:41;99635.56;;;18.10;70.81
70544;BME280;58097;48.364;-1.224;2022-09-01T06:23:08;99632.53;;;18.18;71.01
70544;BME280;58097;48.364;-1.224;2022-09-01T06:25:37;99629.97;;;18.23;71.25
70544;BME280;58097;48.364;-1.224;2022-09-01T06:28:04;99628.44;;;18.27;70.81
70544;BME280;58097;48.364;-1.224;2022-09-01T06:30:30;99631.63;;;18.38;70.63
70544;BME280;58097;48.364;-1.224;2022-09-01T06:32:57;99638.06;;;18.45;70.86
70544;BME280;58097;48.364;-1.224;2022-09-01T06:35:25;99634.19;;;18.52;71.08
70544;BME280;58097;48.364;-1.224;2022-09-01T06:37:57;99633.31;;;18.58;70.98
70544;BME280;58097;48.364;-1.224;2022-09-01T06:40:23;99632.47;;;18.65;72.29
70544;BME280;58097;48.364;-1.224;2022-09-01T06:42:51;99632.88;;;18.68;71.69
70544;BME280;58097;48.364;-1.224;2022-09-01T06:45:20;99634.16;;;18.72;71.32
70544;BME280;58097;48.364;-1.224;2022-09-01T06:47:47;99643.59;;;18.78;72.24
70544;BME280;58097;48.364;-1.224;2022-09-01T06:50:18;99636.28;;;18.77;72.52
70544;BME280;58097;48.364;-1.224;2022-09-01T06:52:47;99641.88;;;18.77;71.73
70544;BME280;58097;48.364;-1.224;2022-09-01T06:55:15;99644.91;;;18.82;71.70
70544;BME280;58097;48.364;-1.224;2022-09-01T06:57:42;99645.28;;;18.92;71.90
70544;BME280;58097;48.364;-1.224;2022-09-01T07:00:13;99646.75;;;19.01;71.61
70544;BME280;58097;48.364;-1.224;2022-09-01T07:02:59;99656.63;;;19.10;71.45
70544;BME280;58097;48.364;-1.224;2022-09-01T07:05:25;99654.66;;;19.17;71.11
70544;BME280;58097;48.364;-1.224;2022-09-01T07:07:52;99650.09;;;19.23;71.07
70544;BME280;58097;48.364;-1.224;2022-09-01T07:10:22;99653.06;;;19.28;70.86
70544;BME280;58097;48.364;-1.224;2022-09-01T07:12:49;99651.94;;;19.36;70.74
70544;BME280;58097;48.364;-1.224;2022-09-01T07:15:15;99640.72;;;19.42;70.37
70544;BME280;58097;48.364;-1.224;2022-09-01T07:17:47;99648.44;;;19.47;69.72
70544;BME280;58097;48.364;-1.224;2022-09-01T07:20:14;99649.69;;;19.51;69.48
70544;BME280;58097;48.364;-1.224;2022-09-01T07:22:41;99648.44;;;19.54;69.38
70544;BME280;58097;48.364;-1.224;2022-09-01T07:25:08;99647.50;;;19.60;69.29
70544;BME280;58097;48.364;-1.224;2022-09-01T07:27:37;99643.41;;;19.62;69.11
70544;BME280;58097;48.364;-1.224;2022-09-01T07:30:04;99641.69;;;19.61;68.26
70544;BME280;58097;48.364;-1.224;2022-09-01T07:32:35;99648.78;;;19.64;68.61
70544;BME280;58097;48.364;-1.224;2022-09-01T07:35:04;99645.41;;;19.55;67.86
70544;BME280;58097;48.364;-1.224;2022-09-01T07:37:30;99641.91;;;19.60;68.29
70544;BME280;58097;48.364;-1.224;2022-09-01T07:39:56;99644.00;;;19.71;68.31
70544;BME280;58097;48.364;-1.224;2022-09-01T07:42:22;99645.59;;;19.85;68.52
70544;BME280;58097;48.364;-1.224;2022-09-01T07:44:48;99648.31;;;19.98;68.48
70544;BME280;58097;48.364;-1.224;2022-09-01T07:47:15;99639.91;;;19.98;67.30
70544;BME280;58097;48.364;-1.224;2022-09-01T07:49:41;99641.78;;;20.04;67.58
70544;BME280;58097;48.364;-1.224;2022-09-01T07:52:07;99634.56;;;20.15;67.64
70544;BME280;58097;48.364;-1.224;2022-09-01T07:54:33;99637.47;;;20.27;67.33
70544;BME280;58097;48.364;-1.224;2022-09-01T07:57:02;99635.56;;;20.46;68.35
70544;BME280;58097;48.364;-1.224;2022-09-01T07:59:28;99640.50;;;20.68;68.05
70544;BME280;58097;48.364;-1.224;2022-09-01T08:01:55;99632.81;;;20.82;67.49
70544;BME280;58097;48.364;-1.224;2022-09-01T08:04:21;99633.72;;;20.94;67.54
70544;BME280;58097;48.364;-1.224;2022-09-01T08:06:48;99637.91;;;21.03;66.97
70544;BME280;58097;48.364;-1.224;2022-09-01T08:09:14;99636.97;;;21.10;65.57
70544;BME280;58097;48.364;-1.224;2022-09-01T08:11:39;99632.53;;;21.20;65.56
70544;BME280;58097;48.364;-1.224;2022-09-01T08:14:05;99637.81;;;21.47;67.46
70544;BME280;58097;48.364;-1.224;2022-09-01T08:16:31;99640.06;;;21.68;67.45
70544;BME280;58097;48.364;-1.224;2022-09-01T08:18:57;99644.13;;;21.72;65.88
70544;BME280;58097;48.364;-1.224;2022-09-01T08:21:24;99646.59;;;21.92;66.37
70544;BME280;58097;48.364;-1.224;2022-09-01T08:23:51;99645.09;;;22.08;65.91
70544;BME280;58097;48.364;-1.224;2022-09-01T08:26:19;99644.59;;;22.11;66.28
70544;BME280;58097;48.364;-1.224;2022-09-01T08:28:46;99640.78;;;22.05;65.14
70544;BME280;58097;48.364;-1.224;2022-09-01T08:31:14;99646.72;;;21.97;65.31
70544;BME280;58097;48.364;-1.224;2022-09-01T08:33:42;99644.78;;;21.98;65.26
70544;BME280;58097;48.364;-1.224;2022-09-01T08:36:10;99641.59;;;21.94;65.10
70544;BME280;58097;48.364;-1.224;2022-09-01T08:38:37;99641.66;;;22.06;65.59
70544;BME280;58097;48.364;-1.224;2022-09-01T08:41:05;99646.06;;;22.13;63.23
70544;BME280;58097;48.364;-1.224;2022-09-01T08:46:28;99641.94;;;22.28;61.84
70544;BME280;58097;48.364;-1.224;2022-09-01T08:49:03;99644.59;;;22.22;62.81
70544;BME280;58097;48.364;-1.224;2022-09-01T08:51:41;99648.38;;;22.16;62.89
70544;BME280;58097;48.364;-1.224;2022-09-01T08:56:48;99656.47;;;22.13;63.01
70544;BME280;58097;48.364;-1.224;2022-09-01T08:59:18;99661.09;;;22.19;63.78
70544;BME280;58097;48.364;-1.224;2022-09-01T09:01:50;99658.91;;;22.21;63.49
70544;BME280;58097;48.364;-1.224;2022-09-01T09:04:28;99664.78;;;22.19;63.63
70544;BME280;58097;48.364;-1.224;2022-09-01T09:10:05;99676.88;;;22.08;63.69
70544;BME280;58097;48.364;-1.224;2022-09-01T09:15:43;99655.25;;;21.79;63.35
70544;BME280;58097;48.364;-1.224;2022-09-01T09:21:31;99658.13;;;21.60;63.83
70544;BME280;58097;48.364;-1.224;2022-09-01T09:26:51;99653.09;;;21.51;64.09
70544;BME280;58097;48.364;-1.224;2022-09-01T09:29:18;99652.00;;;21.52;64.17
70544;BME280;58097;48.364;-1.224;2022-09-01T09:31:45;99652.00;;;21.52;63.64
70544;BME280;58097;48.364;-1.224;2022-09-01T09:34:29;99653.56;;;21.48;63.71
70544;BME280;58097;48.364;-1.224;2022-09-01T09:37:01;99645.47;;;21.40;63.79
70544;BME280;58097;48.364;-1.224;2022-09-01T09:39:40;99650.44;;;21.38;63.48
70544;BME280;58097;48.364;-1.224;2022-09-01T09:42:09;99648.75;;;21.37;64.03
70544;BME280;58097;48.364;-1.224;2022-09-01T09:44:47;99650.06;;;21.34;64.19
70544;BME280;58097;48.364;-1.224;2022-09-01T09:47:40;99650.44;;;21.38;64.26
70544;BME280;58097;48.364;-1.224;2022-09-01T09:55:53;99651.84;;;21.47;64.32
70544;BME280;58097;48.364;-1.224;2022-09-01T09:58:21;99647.22;;;21.52;64.44
70544;BME280;58097;48.364;-1.224;2022-09-01T10:03:50;99640.31;;;21.37;64.42
70544;BME280;58097;48.364;-1.224;2022-09-01T10:06:38;99633.69;;;21.31;64.69
70544;BME280;58097;48.364;-1.224;2022-09-01T10:09:34;99636.03;;;21.34;65.06
70544;BME280;58097;48.364;-1.224;2022-09-01T10:12:01;99636.81;;;21.41;65.01
70544;BME280;58097;48.364;-1.224;2022-09-01T10:20:13;99642.41;;;21.71;65.21
70544;BME280;58097;48.364;-1.224;2022-09-01T10:22:42;99641.38;;;21.65;64.57
70544;BME280;58097;48.364;-1.224;2022-09-01T10:25:13;99639.59;;;21.71;65.12
70544;BME280;58097;48.364;-1.224;2022-09-01T10:27:44;99643.78;;;21.80;65.40
70544;BME280;58097;48.364;-1.224;2022-09-01T10:30:16;99647.56;;;21.86;65.30
70544;BME280;58097;48.364;-1.224;2022-09-01T10:32:48;99644.13;;;21.84;64.78
70544;BME280;58097;48.364;-1.224;2022-09-01T10:35:19;99648.78;;;21.78;63.88
70544;BME280;58097;48.364;-1.224;2022-09-01T10:37:48;99646.22;;;21.88;64.10
70544;BME280;58097;48.364;-1.224;2022-09-01T10:40:19;99650.88;;;21.94;63.54
70544;BME280;58097;48.364;-1.224;2022-09-01T10:48:56;99629.31;;;22.30;64.22
70544;BME280;58097;48.364;-1.224;2022-09-01T10:51:41;99628.69;;;22.51;62.82
70544;BME280;58097;48.364;-1.224;2022-09-01T10:54:07;99634.94;;;22.65;63.82
70544;BME280;58097;48.364;-1.224;2022-09-01T10:56:52;99627.44;;;22.82;63.94
70544;BME280;58097;48.364;-1.224;2022-09-01T10:59:25;99629.66;;;22.69;60.71
70544;BME280;58097;48.364;-1.224;2022-09-01T11:02:11;99621.56;;;22.72;63.25
70544;BME280;58097;48.364;-1.224;2022-09-01T11:07:38;99619.59;;;22.96;63.14
70544;BME280;58097;48.364;-1.224;2022-09-01T11:10:30;99623.66;;;22.89;62.04
70544;BME280;58097;48.364;-1.224;2022-09-01T11:15:53;99621.34;;;23.26;63.43
70544;BME280;58097;48.364;-1.224;2022-09-01T11:18:39;99623.75;;;23.34;62.11
70544;BME280;58097;48.364;-1.224;2022-09-01T11:21:28;99616.72;;;23.48;60.97
70544;BME280;58097;48.364;-1.224;2022-09-01T11:27:00;99607.44;;;23.36;61.41
70544;BME280;58097;48.364;-1.224;2022-09-01T11:29:53;99607.03;;;23.15;60.64
70544;BME280;58097;48.364;-1.224;2022-09-01T11:35:21;99618.31;;;23.15;60.38
70544;BME280;58097;48.364;-1.224;2022-09-01T11:37:48;99621.81;;;22.94;60.29
70544;BME280;58097;48.364;-1.224;2022-09-01T11:40:24;99611.13;;;22.96;60.51
70544;BME280;58097;48.364;-1.224;2022-09-01T11:42:51;99607.16;;;23.09;62.02
70544;BME280;58097;48.364;-1.224;2022-09-01T11:45:22;99610.31;;;23.24;62.42
70544;BME280;58097;48.364;-1.224;2022-09-01T11:47:54;99610.72;;;23.44;61.97
70544;BME280;58097;48.364;-1.224;2022-09-01T11:50:27;99612.28;;;23.52;61.32
70544;BME280;58097;48.364;-1.224;2022-09-01T11:53:02;99599.50;;;23.61;61.10
70544;BME280;58097;48.364;-1.224;2022-09-01T11:55:39;99608.03;;;23.66;61.72
70544;BME280;58097;48.364;-1.224;2022-09-01T11:58:09;99611.06;;;23.76;60.92
70544;BME280;58097;48.364;-1.224;2022-09-01T12:00:39;99609.19;;;23.82;60.41
70544;BME280;58097;48.364;-1.224;2022-09-01T12:03:25;99603.94;;;23.57;59.68
70544;BME280;58097;48.364;-1.224;2022-09-01T12:05:59;99605.38;;;23.60;60.76
70544;BME280;58097;48.364;-1.224;2022-09-01T12:08:29;99609.75;;;23.67;61.30
70544;BME280;58097;48.364;-1.224;2022-09-01T12:11:20;99618.28;;;23.56;59.79
70544;BME280;58097;48.364;-1.224;2022-09-01T12:14:02;99607.94;;;23.61;60.81
70544;BME280;58097;48.364;-1.224;2022-09-01T12:16:30;99618.59;;;23.71;60.85
70544;BME280;58097;48.364;-1.224;2022-09-01T12:18:59;99621.59;;;23.81;61.05
70544;BME280;58097;48.364;-1.224;2022-09-01T12:21:30;99615.75;;;23.88;60.44
70544;BME280;58097;48.364;-1.224;2022-09-01T12:24:19;99614.47;;;23.95;61.55
70544;BME280;58097;48.364;-1.224;2022-09-01T12:26:48;99610.16;;;24.04;61.58
70544;BME280;58097;48.364;-1.224;2022-09-01T12:29:15;99614.50;;;24.12;60.93
70544;BME280;58097;48.364;-1.224;2022-09-01T12:31:43;99614.56;;;24.17;61.22
70544;BME280;58097;48.364;-1.224;2022-09-01T12:37:23;99615.28;;;24.07;58.61
70544;BME280;58097;48.364;-1.224;2022-09-01T12:39:52;99611.69;;;24.12;60.05
70544;BME280;58097;48.364;-1.224;2022-09-01T12:42:27;99608.59;;;24.14;60.33
70544;BME280;58097;48.364;-1.224;2022-09-01T12:44:57;99613.38;;;24.13;60.39
70544;BME280;58097;48.364;-1.224;2022-09-01T12:47:45;99607.75;;;24.13;59.99
70544;BME280;58097;48.364;-1.224;2022-09-01T12:50:35;99621.44;;;24.04;59.95
70544;BME280;58097;48.364;-1.224;2022-09-01T12:53:03;99614.22;;;23.97;59.96
70544;BME280;58097;48.364;-1.224;2022-09-01T12:55:38;99610.22;;;23.93;60.31
70544;BME280;58097;48.364;-1.224;2022-09-01T12:58:08;99621.91;;;23.85;60.65
70544;BME280;58097;48.364;-1.224;2022-09-01T13:00:36;99612.00;;;23.82;60.70
70544;BME280;58097;48.364;-1.224;2022-09-01T13:03:18;99613.88;;;23.76;61.11
70544;BME280;58097;48.364;-1.224;2022-09-01T13:05:46;99614.41;;;23.73;61.67
70544;BME280;58097;48.364;-1.224;2022-09-01T13:08:19;99609.75;;;23.67;61.61
70544;BME280;58097;48.364;-1.224;2022-09-01T13:10:47;99605.97;;;23.62;61.75
70544;BME280;58097;48.364;-1.224;2022-09-01T13:13:15;99599.53;;;23.49;64.11
70544;BME280;58097;48.364;-1.224;2022-09-01T13:15:48;99609.13;;;23.37;64.11
70544;BME280;58097;48.364;-1.224;2022-09-01T13:18:19;99608.34;;;23.25;64.26
70544;BME280;58097;48.364;-1.224;2022-09-01T13:20:46;99608.38;;;23.13;65.00
70544;BME280;58097;48.364;-1.224;2022-09-01T13:23:12;99607.50;;;23.12;64.64
70544;BME280;58097;48.364;-1.224;2022-09-01T13:25:38;99598.84;;;23.14;64.49
70544;BME280;58097;48.364;-1.224;2022-09-01T13:28:05;99605.19;;;23.09;64.79
70544;BME280;58097;48.364;-1.224;2022-09-01T13:30:33;99595.88;;;23.09;64.65
70544;BME280;58097;48.364;-1.224;2022-09-01T13:33:00;99600.91;;;23.07;65.05
70544;BME280;58097;48.364;-1.224;2022-09-01T13:35:25;99598.59;;;23.04;65.38
70544;BME280;58097;48.364;-1.224;2022-09-01T13:37:51;99599.47;;;23.04;65.96
70544;BME280;58097;48.364;-1.224;2022-09-01T13:40:19;99594.06;;;23.03;66.82
70544;BME280;58097;48.364;-1.224;2022-09-01T13:42:50;99585.88;;;23.01;67.34
70544;BME280;58097;48.364;-1.224;2022-09-01T13:45:18;99578.78;;;22.99;65.94
70544;BME280;58097;48.364;-1.224;2022-09-01T13:47:46;99577.16;;;23.03;67.48
70544;BME280;58097;48.364;-1.224;2022-09-01T13:50:14;99572.91;;;23.00;66.71
70544;BME280;58097;48.364;-1.224;2022-09-01T13:52:44;99576.06;;;23.04;67.03
70544;BME280;58097;48.364;-1.224;2022-09-01T13:55:18;99582.03;;;23.07;67.05
70544;BME280;58097;48.364;-1.224;2022-09-01T13:57:44;99570.28;;;23.10;66.41
70544;BME280;58097;48.364;-1.224;2022-09-01T14:00:13;99570.78;;;23.07;66.22